Time;durP1;ratioP1;P1;durP2;ratioP2;P2;SDS_P1;SDS_P2;PMS_P1;PMS_P2;Temp;Humidity;BMP_temperature;BMP_pressure;BME280_temperature;BME280_humidity;BME280_pressure;Samples;Min_cycle;Max_cycle;Signal;HPM_P1;HPM_P2
2021/04/13 00:01:14;;;;;;;27.13;3.63;;;2.90;99.90;;;;;;4992576;28;20043;-79
2021/04/13 00:03:56;;;;;;;17.40;2.00;;;3.00;99.90;;;;;;4991970;28;20509;-79
2021/04/13 00:06:28;;;;;;;16.73;1.60;;;3.00;99.90;;;;;;4977489;28;20074;-79
2021/04/13 00:08:58;;;;;;;15.30;2.22;;;3.00;99.90;;;;;;4971841;28;20094;-79
2021/04/13 00:11:25;;;;;;;16.38;1.40;;;2.90;99.90;;;;;;4990420;28;20113;-79
2021/04/13 00:13:57;;;;;;;8.25;1.60;;;2.80;99.90;;;;;;4990437;28;20026;-79
2021/04/13 00:16:27;;;;;;;8.98;1.45;;;2.80;99.90;;;;;;4992009;28;20034;-79
2021/04/13 00:18:54;;;;;;;7.03;1.38;;;2.70;99.90;;;;;;4991079;28;20026;-79
2021/04/13 00:21:31;;;;;;;11.77;1.60;;;2.70;99.90;;;;;;4992311;28;20026;-79
2021/04/13 00:24:01;;;;;;;3.00;1.00;;;2.70;99.90;;;;;;4991662;28;20030;-79
2021/04/13 00:26:32;;;;;;;13.30;1.83;;;2.60;99.90;;;;;;4973963;28;20054;-79
2021/04/13 00:29:01;;;;;;;8.75;1.48;;;2.60;99.90;;;;;;4972864;28;20406;-79
2021/04/13 00:31:43;;;;;;;2.92;1.30;;;2.60;99.90;;;;;;4972748;28;20077;-79
2021/04/13 00:34:29;;;;;;;12.02;2.70;;;2.60;99.90;;;;;;4972113;28;20027;-79
2021/04/13 00:37:12;;;;;;;6.63;1.38;;;2.50;99.90;;;;;;4971788;28;20035;-79
2021/04/13 00:39:38;;;;;;;5.90;1.40;;;2.40;99.90;;;;;;4984510;28;20452;-79
2021/04/13 00:42:08;;;;;;;13.77;2.33;;;2.30;99.90;;;;;;4972461;28;20035;-79
2021/04/13 00:44:41;;;;;;;5.47;1.30;;;2.20;99.90;;;;;;4972115;28;20558;-79
2021/04/13 00:47:13;;;;;;;5.85;1.55;;;2.10;99.90;;;;;;4988968;28;20124;-79
2021/04/13 00:49:46;;;;;;;8.85;1.17;;;2.10;99.90;;;;;;4993211;28;20402;-79
2021/04/13 00:52:16;;;;;;;10.30;1.48;;;2.10;99.90;;;;;;4996059;28;20026;-79
2021/04/13 00:54:51;;;;;;;13.57;2.17;;;2.10;99.90;;;;;;4994972;28;20038;-79
2021/04/13 00:57:27;;;;;;;12.68;2.13;;;2.10;99.90;;;;;;4994761;28;20026;-79
2021/04/13 00:59:56;;;;;;;25.05;2.63;;;2.50;99.90;;;;;;4995619;28;20026;-79
2021/04/13 01:02:27;;;;;;;7.03;1.50;;;2.70;99.90;;;;;;4995811;28;20050;-79
2021/04/13 01:05:18;;;;;;;11.00;1.85;;;2.90;99.90;;;;;;5007271;28;20406;-79
2021/04/13 01:07:50;;;;;;;10.32;1.55;;;2.90;99.90;;;;;;4976280;28;20101;-79
2021/04/13 01:10:30;;;;;;;8.73;1.60;;;2.80;99.90;;;;;;4983796;28;20032;-79
2021/04/13 01:13:09;;;;;;;12.05;1.98;;;2.70;99.90;;;;;;4994743;28;20052;-79
2021/04/13 01:15:37;;;;;;;5.22;0.85;;;2.50;99.90;;;;;;4993698;28;20058;-79
2021/04/13 01:18:16;;;;;;;8.95;1.38;;;2.40;99.90;;;;;;4995456;28;20482;-79
2021/04/13 01:20:48;;;;;;;11.40;1.92;;;2.30;99.90;;;;;;4995349;28;20093;-79
2021/04/13 01:23:19;;;;;;;8.63;1.58;;;2.20;99.90;;;;;;4995057;28;20022;-79
2021/04/13 01:25:47;;;;;;;9.77;1.75;;;2.10;99.90;;;;;;4982098;28;20023;-79
2021/04/13 01:28:18;;;;;;;6.05;0.98;;;2.10;99.90;;;;;;4975763;28;20034;-79
2021/04/13 01:30:49;;;;;;;6.38;1.42;;;2.00;99.90;;;;;;4975986;28;20065;-79
2021/04/13 01:33:15;;;;;;;10.35;1.52;;;2.00;99.90;;;;;;4985405;28;20034;-79
2021/04/13 01:35:46;;;;;;;3.75;1.13;;;1.80;99.90;;;;;;4994279;28;20038;-79
2021/04/13 01:38:21;;;;;;;7.47;0.88;;;1.70;99.90;;;;;;5010059;28;20053;-79
2021/04/13 01:41:03;;;;;;;8.40;1.10;;;1.70;99.90;;;;;;4990419;28;20031;-79
2021/04/13 01:43:32;;;;;;;5.78;0.95;;;1.70;99.90;;;;;;4993393;28;20050;-80
2021/04/13 01:45:59;;;;;;;7.32;1.73;;;1.60;99.90;;;;;;4994535;28;20018;-79
2021/04/13 01:48:26;;;;;;;4.22;1.10;;;1.60;99.90;;;;;;5010027;28;20108;-79
2021/04/13 01:50:58;;;;;;;5.78;1.13;;;1.60;99.90;;;;;;4993126;28;20033;-79
2021/04/13 01:53:26;;;;;;;4.38;1.50;;;1.50;99.90;;;;;;4994798;28;20105;-79
2021/04/13 01:56:03;;;;;;;11.63;1.42;;;1.50;99.90;;;;;;4993514;28;20072;-78
2021/04/13 01:58:46;;;;;;;9.35;2.10;;;1.50;99.90;;;;;;4994628;28;20030;-80
2021/04/13 02:01:19;;;;;;;28.35;2.78;;;1.50;99.90;;;;;;4992377;28;20631;-80
2021/04/13 02:04:00;;;;;;;11.75;1.88;;;1.70;99.90;;;;;;4993996;28;20427;-79
2021/04/13 02:06:44;;;;;;;18.73;3.05;;;1.80;99.90;;;;;;4994551;28;20026;-79
2021/04/13 02:09:43;;;;;;;28.42;2.90;;;2.00;99.90;;;;;;4993290;28;20022;-79
2021/04/13 02:12:16;;;;;;;32.25;3.03;;;2.10;99.90;;;;;;4973799;28;20027;-79
2021/04/13 02:14:49;;;;;;;34.08;3.20;;;2.30;99.90;;;;;;4974344;28;20023;-80
2021/04/13 02:17:19;;;;;;;26.45;3.38;;;2.40;99.90;;;;;;4975097;28;20035;-79
2021/04/13 02:19:50;;;;;;;43.33;4.35;;;2.50;99.90;;;;;;4975372;28;20023;-79
2021/04/13 02:22:18;;;;;;;36.80;4.10;;;2.50;99.90;;;;;;4985796;28;20520;-79
2021/04/13 02:24:44;;;;;;;22.13;3.15;;;2.50;99.90;;;;;;4975934;28;20395;-79
2021/04/13 02:27:14;;;;;;;27.80;3.45;;;2.50;99.90;;;;;;4994088;28;20382;-79
2021/04/13 02:29:51;;;;;;;28.80;4.18;;;2.50;99.90;;;;;;5009104;28;20033;-79
2021/04/13 02:32:28;;;;;;;39.42;3.75;;;2.40;99.90;;;;;;4993755;28;20096;-79
2021/04/13 02:34:59;;;;;;;35.05;3.10;;;2.30;99.90;;;;;;4993645;28;20054;-79
2021/04/13 02:37:32;;;;;;;35.42;3.47;;;2.30;99.90;;;;;;4993930;28;20027;-78
2021/04/13 02:40:06;;;;;;;32.28;3.42;;;2.40;99.90;;;;;;4993870;28;20033;-79
2021/04/13 02:42:41;;;;;;;29.42;3.53;;;2.30;99.90;;;;;;4993767;28;20026;-79
2021/04/13 02:45:11;;;;;;;40.67;4.18;;;2.30;99.90;;;;;;4991987;28;20117;-79
2021/04/13 02:47:45;;;;;;;29.10;3.78;;;2.20;99.90;;;;;;4992600;28;20037;-78
2021/04/13 02:50:15;;;;;;;41.08;5.80;;;2.20;99.90;;;;;;4988535;28;20023;-79
2021/04/13 02:52:46;;;;;;;37.78;3.92;;;2.20;99.90;;;;;;4974283;28;20039;-79
2021/04/13 02:55:23;;;;;;;40.80;4.00;;;2.20;99.90;;;;;;4981718;28;20495;-79
2021/04/13 02:57:50;;;;;;;28.48;3.90;;;2.30;99.90;;;;;;4993588;28;20031;-80
2021/04/13 03:00:26;;;;;;;57.15;4.95;;;2.40;99.90;;;;;;4992177;28;20058;-79
2021/04/13 03:02:57;;;;;;;60.97;6.22;;;2.40;99.90;;;;;;4992010;28;20112;-79
2021/04/13 03:05:28;;;;;;;33.90;5.85;;;2.60;99.90;;;;;;5008067;28;20122;-79
2021/04/13 03:07:57;;;;;;;50.58;6.15;;;2.70;99.90;;;;;;4992069;28;20026;-79
2021/04/13 03:10:29;;;;;;;44.85;4.85;;;2.80;99.90;;;;;;4988800;28;20034;-79
2021/04/13 03:12:55;;;;;;;51.10;5.10;;;2.80;99.90;;;;;;4974045;28;20035;-79
2021/04/13 03:15:26;;;;;;;32.63;4.25;;;2.80;99.90;;;;;;4973290;28;20055;-79
2021/04/13 03:17:56;;;;;;;64.93;4.63;;;2.80;99.90;;;;;;4973825;28;20027;-79
2021/04/13 03:20:25;;;;;;;49.95;4.93;;;2.80;99.90;;;;;;4972523;28;20766;-79
2021/04/13 03:22:54;;;;;;;54.95;5.82;;;2.80;99.90;;;;;;4973778;28;20082;-79
2021/04/13 03:25:23;;;;;;;41.33;4.55;;;2.80;99.90;;;;;;4981785;28;20507;-79
2021/04/13 03:27:49;;;;;;;54.33;6.63;;;2.80;99.90;;;;;;4993131;28;20117;-80
2021/04/13 03:30:23;;;;;;;42.22;5.18;;;2.80;99.90;;;;;;4992469;28;20034;-79
2021/04/13 03:33:04;;;;;;;51.70;6.07;;;2.90;99.90;;;;;;4992838;28;20022;-79
2021/04/13 03:35:31;;;;;;;42.78;4.55;;;3.10;99.90;;;;;;4992299;28;20483;-79
2021/04/13 03:38:00;;;;;;;28.00;3.03;;;3.20;99.90;;;;;;4991542;28;20061;-78
2021/04/13 03:40:28;;;;;;;15.85;3.08;;;3.10;99.90;;;;;;4991728;28;20504;-78
2021/04/13 03:42:57;;;;;;;13.10;2.55;;;2.80;99.90;;;;;;4991408;28;20038;-79
2021/04/13 03:45:24;;;;;;;9.18;1.80;;;2.50;99.90;;;;;;4992075;28;20026;-79
2021/04/13 03:47:50;;;;;;;10.65;1.70;;;2.30;99.90;;;;;;4992766;28;20019;-79
2021/04/13 03:50:23;;;;;;;7.45;1.45;;;2.10;99.90;;;;;;5007119;28;20089;-79
2021/04/13 03:53:10;;;;;;;16.52;2.00;;;2.00;99.90;;;;;;4992740;28;20065;-80
2021/04/13 03:55:36;;;;;;;13.50;2.08;;;1.90;99.90;;;;;;4991338;28;20049;-81
2021/04/13 03:58:19;;;;;;;12.52;1.98;;;1.90;99.90;;;;;;4991236;28;20927;-80
2021/04/13 04:00:45;;;;;;;6.63;1.52;;;1.80;99.90;;;;;;5007455;28;20521;-80
2021/04/13 04:03:11;;;;;;;10.15;1.88;;;1.80;99.90;;;;;;4992508;28;20042;-80
2021/04/13 04:06:04;;;;;;;10.88;1.80;;;1.90;99.90;;;;;;4990675;28;20026;-80
2021/04/13 04:08:40;;;;;;;9.80;1.70;;;1.80;99.90;;;;;;4989761;28;20048;-80
2021/04/13 04:11:07;;;;;;;12.77;1.92;;;1.90;99.90;;;;;;4976128;28;20042;-79
2021/04/13 04:13:44;;;;;;;22.88;2.50;;;1.90;99.90;;;;;;4971664;28;20027;-79
2021/04/13 04:16:20;;;;;;;11.98;1.98;;;1.90;99.90;;;;;;4973078;28;20110;-79
2021/04/13 04:18:50;;;;;;;23.17;2.97;;;1.90;99.90;;;;;;4971823;28;20027;-79
2021/04/13 04:21:31;;;;;;;33.55;3.15;;;2.10;99.90;;;;;;4986630;28;20546;-79
2021/04/13 04:24:34;;;;;;;36.53;3.95;;;2.20;99.90;;;;;;4990007;28;20030;-79
2021/04/13 04:27:16;;;;;;;38.72;4.30;;;2.30;99.90;;;;;;4991914;28;20394;-80
2021/04/13 04:29:43;;;;;;;46.55;4.38;;;2.40;99.90;;;;;;4992397;28;20031;-79
2021/04/13 04:32:21;;;;;;;39.78;5.15;;;2.40;99.90;;;;;;4990754;28;20088;-79
2021/04/13 04:34:46;;;;;;;51.92;5.43;;;2.50;99.90;;;;;;4991597;28;20068;-79
2021/04/13 04:37:33;;;;;;;64.95;5.40;;;2.60;99.90;;;;;;4991867;28;20026;-79
2021/04/13 04:40:38;;;;;;;62.03;6.97;;;2.80;99.90;;;;;;4987409;28;20134;-79
2021/04/13 04:43:05;;;;;;;;;;;2.80;99.90;;;;;;4972533;28;20049;-79
2021/04/13 04:45:33;;;;;;;74.35;6.93;;;2.90;99.90;;;;;;4972052;28;19906;-80
2021/04/13 04:47:59;;;;;;;47.53;5.05;;;3.00;99.90;;;;;;4987495;28;20038;-79
2021/04/13 04:50:25;;;;;;;89.32;7.28;;;3.10;99.90;;;;;;4972827;28;20475;-79
2021/04/13 04:52:51;;;;;;;66.68;6.75;;;3.20;99.90;;;;;;4972565;28;20027;-79
2021/04/13 04:55:17;;;;;;;58.30;5.80;;;3.20;99.90;;;;;;4980014;28;20030;-79
2021/04/13 04:57:42;;;;;;;57.70;6.82;;;3.10;99.90;;;;;;4991972;28;20110;-79
2021/04/13 05:00:09;;;;;;;56.58;5.78;;;3.00;99.90;;;;;;4992017;28;20030;-79
2021/04/13 05:02:35;;;;;;;69.75;6.72;;;3.00;99.90;;;;;;4991856;28;20027;-79
2021/04/13 05:05:01;;;;;;;75.60;6.80;;;3.00;99.90;;;;;;5006058;28;20028;-79
2021/04/13 05:07:27;;;;;;;57.60;6.05;;;2.90;99.90;;;;;;4990616;28;20030;-78
2021/04/13 05:09:53;;;;;;;76.10;7.80;;;2.90;99.90;;;;;;4986525;28;20027;-79
2021/04/13 05:12:18;;;;;;;46.45;7.50;;;2.90;99.90;;;;;;4972262;28;20088;-79
2021/04/13 05:14:44;;;;;;;63.95;6.25;;;2.90;99.90;;;;;;4970553;28;20035;-79
2021/04/13 05:17:10;;;;;;;59.97;7.93;;;2.90;99.90;;;;;;4990006;28;20034;-79
2021/04/13 05:19:35;;;;;;;60.85;6.47;;;3.00;99.90;;;;;;4991737;28;20027;-79
2021/04/13 05:22:01;;;;;;;56.85;6.70;;;3.10;99.90;;;;;;5006859;28;20047;-79
2021/04/13 05:24:26;;;;;;;77.78;8.88;;;3.20;99.90;;;;;;4990820;28;20062;-79
2021/04/13 05:26:52;;;;;;;58.25;7.53;;;3.30;99.90;;;;;;5006766;28;20022;-79
2021/04/13 05:29:17;;;;;;;51.08;5.72;;;3.50;99.90;;;;;;4991742;28;20498;-79
2021/04/13 05:31:43;;;;;;;79.32;7.57;;;3.60;99.90;;;;;;4991571;28;20042;-79
2021/04/13 05:34:10;;;;;;;68.15;7.10;;;3.60;99.90;;;;;;4989645;28;20037;-79
2021/04/13 05:36:37;;;;;;;63.95;7.45;;;3.70;99.90;;;;;;4977217;28;20399;-79
2021/04/13 05:39:05;;;;;;;52.17;8.52;;;3.90;99.90;;;;;;4975770;28;20101;-79
2021/04/13 05:41:31;;;;;;;61.83;7.70;;;4.00;99.90;;;;;;4993622;28;20034;-79
2021/04/13 05:43:57;;;;;;;44.13;7.55;;;4.10;99.90;;;;;;4994329;28;20036;-79
2021/04/13 05:46:25;;;;;;;51.45;6.15;;;4.20;99.90;;;;;;4994678;28;20116;-80
2021/04/13 05:48:52;;;;;;;48.45;5.90;;;4.40;99.90;;;;;;4994924;28;20026;-79
2021/04/13 05:51:19;;;;;;;45.95;6.35;;;4.60;99.90;;;;;;4995061;28;20037;-79
2021/04/13 05:53:45;;;;;;;31.45;4.20;;;4.70;99.90;;;;;;4994316;28;20027;-79
2021/04/13 05:56:15;;;;;;;23.63;3.05;;;4.60;99.90;;;;;;4994555;28;20053;-79
2021/04/13 05:58:49;;;;;;;32.85;3.58;;;4.40;99.90;;;;;;4975294;28;20059;-79
2021/04/13 06:01:15;;;;;;;27.13;3.60;;;4.30;99.90;;;;;;4990431;28;20026;-79
2021/04/13 06:03:43;;;;;;;30.25;4.25;;;4.20;99.90;;;;;;4975049;28;20543;-80
2021/04/13 06:06:09;;;;;;;35.72;5.22;;;4.20;99.90;;;;;;4986886;28;20078;-79
2021/04/13 06:08:34;;;;;;;29.42;3.88;;;4.30;99.90;;;;;;4994728;28;20018;-79
2021/04/13 06:11:00;;;;;;;32.90;4.03;;;4.30;99.90;;;;;;4989813;28;20407;-79
2021/04/13 06:13:26;;;;;;;21.13;3.53;;;4.30;99.90;;;;;;4975064;28;20035;-79
2021/04/13 06:15:55;;;;;;;41.33;5.57;;;4.20;99.90;;;;;;4979591;28;20025;-81
2021/04/13 06:18:22;;;;;;;52.45;5.65;;;4.20;99.90;;;;;;4993126;28;20030;-80
2021/04/13 06:20:48;;;;;;;27.10;3.58;;;4.30;99.90;;;;;;4993148;28;20430;-79
2021/04/13 06:23:14;;;;;;;44.65;4.88;;;4.40;99.90;;;;;;4994291;28;20101;-79
2021/04/13 06:25:40;;;;;;;36.63;4.82;;;4.40;99.90;;;;;;4988844;28;20031;-79
2021/04/13 06:28:06;;;;;;;36.03;4.75;;;4.40;99.90;;;;;;4974898;28;20046;-80
2021/04/13 06:30:32;;;;;;;43.42;6.28;;;4.40;99.90;;;;;;4974842;28;20480;-79
2021/04/13 06:32:58;;;;;;;33.50;4.85;;;4.40;99.90;;;;;;4974646;28;20035;-79
2021/04/13 06:35:25;;;;;;;41.58;5.55;;;4.50;99.90;;;;;;4974393;28;20027;-80
2021/04/13 06:37:52;;;;;;;35.72;6.07;;;4.50;99.90;;;;;;4974653;28;20377;-79
2021/04/13 06:40:55;;;;;;;52.25;6.70;;;4.50;99.90;;;;;;4982582;28;20042;-79
2021/04/13 06:43:57;;;;;;;40.25;5.57;;;4.40;99.90;;;;;;4993095;28;20161;-80
2021/04/13 06:46:25;;;;;;;38.78;5.70;;;4.50;99.90;;;;;;4992393;28;20069;-79
2021/04/13 06:48:58;;;;;;;42.60;5.18;;;4.50;99.90;;;;;;4992552;28;20790;-79
2021/04/13 06:51:33;;;;;;;58.72;8.52;;;4.80;99.90;;;;;;5009012;28;20022;-79
2021/04/13 06:54:07;;;;;;;48.50;5.38;;;5.00;99.90;;;;;;4992928;28;20034;-79
2021/04/13 06:56:41;;;;;;;41.92;6.13;;;5.10;99.90;;;;;;4975196;28;20038;-80
2021/04/13 06:59:33;;;;;;;43.15;7.38;;;5.40;99.90;;;;;;4973027;28;20030;-80
2021/04/13 07:02:02;;;;;;;51.90;8.15;;;5.60;99.90;;;;;;4984573;28;20399;-80
2021/04/13 07:04:41;;;;;;;33.53;4.78;;;5.60;99.90;;;;;;4991240;28;20030;-80
2021/04/13 07:07:33;;;;;;;47.17;5.25;;;5.80;99.90;;;;;;4993337;28;20098;-80
2021/04/13 07:10:10;;;;;;;40.38;7.07;;;5.90;99.90;;;;;;4992775;28;20053;-80
2021/04/13 07:12:42;;;;;;;50.92;5.30;;;6.00;99.90;;;;;;4993396;28;20073;-81
2021/04/13 07:15:22;;;;;;;37.55;5.72;;;6.10;99.90;;;;;;4992801;28;20034;-80
2021/04/13 07:18:07;;;;;;;34.95;6.55;;;6.10;99.90;;;;;;4993103;28;20026;-79
2021/04/13 07:20:59;;;;;;;50.28;5.57;;;6.20;99.90;;;;;;4991647;28;20026;-80
2021/04/13 07:23:47;;;;;;;41.35;5.30;;;6.20;99.90;;;;;;4985137;28;20070;-80
2021/04/13 07:26:22;;;;;;;43.80;5.90;;;6.20;99.90;;;;;;4992258;28;20514;-81
2021/04/13 07:29:11;;;;;;;46.53;5.57;;;6.20;99.90;;;;;;4991754;28;20030;-79
2021/04/13 07:31:57;;;;;;;34.88;5.07;;;6.20;99.90;;;;;;5007369;28;20030;-79
2021/04/13 07:34:23;;;;;;;48.30;5.68;;;6.20;99.90;;;;;;4992324;28;20106;-80
2021/04/13 07:36:57;;;;;;;45.80;7.90;;;6.40;99.90;;;;;;4992704;28;20105;-81
2021/04/13 07:39:25;;;;;;;38.15;6.05;;;6.40;99.90;;;;;;4992627;28;20057;-81
2021/04/13 07:42:01;;;;;;;40.42;6.00;;;6.50;99.90;;;;;;4992732;28;20022;-81
2021/04/13 07:44:50;;;;;;;31.42;5.55;;;6.60;99.90;;;;;;4992142;28;20034;-82
2021/04/13 07:47:48;;;;;;;36.00;4.95;;;6.80;99.90;;;;;;4992657;28;20027;-82
2021/04/13 07:50:17;;;;;;;28.95;4.97;;;6.80;99.90;;;;;;4984523;28;20035;-80
2021/04/13 07:52:59;;;;;;;32.40;5.43;;;6.70;99.90;;;;;;4973145;28;20031;-82
2021/04/13 07:55:46;;;;;;;35.33;5.07;;;7.00;99.90;;;;;;4980076;28;20498;-81
2021/04/13 07:58:36;;;;;;;38.13;5.63;;;7.20;99.90;;;;;;4992063;28;20037;-81
2021/04/13 08:01:06;;;;;;;43.55;4.75;;;7.10;99.90;;;;;;4992195;28;20085;-79
2021/04/13 08:03:33;;;;;;;37.72;5.70;;;6.80;99.90;;;;;;4991008;28;20106;-81
2021/04/13 08:06:04;;;;;;;41.25;5.32;;;6.40;99.90;;;;;;4991869;28;20101;-80
2021/04/13 08:08:39;;;;;;;28.85;4.85;;;6.40;99.90;;;;;;4992480;28;20140;-81
2021/04/13 08:11:10;;;;;;;36.47;4.78;;;6.60;99.90;;;;;;4976378;28;20545;-82
2021/04/13 08:13:37;;;;;;;29.15;4.15;;;6.80;99.90;;;;;;4972727;28;20035;-82
2021/04/13 08:16:03;;;;;;;24.00;3.95;;;6.80;99.90;;;;;;4972345;28;20033;-81
2021/04/13 08:18:42;;;;;;;39.40;5.13;;;6.80;99.90;;;;;;4971610;28;20519;-81
2021/04/13 08:21:24;;;;;;;23.73;3.83;;;7.00;99.90;;;;;;4983738;28;20026;-79
2021/04/13 08:23:52;;;;;;;14.55;3.17;;;6.90;99.90;;;;;;4973249;28;20046;-82
2021/04/13 08:26:30;;;;;;;22.95;4.32;;;7.00;99.90;;;;;;4988583;28;20035;-80
2021/04/13 08:29:10;;;;;;;33.90;5.28;;;7.50;99.90;;;;;;4992213;28;20099;-81
2021/04/13 08:35:06;;;;;;;25.25;4.15;;;7.70;99.90;;;;;;4991765;28;20034;-83
2021/04/13 08:38:22;;;;;;;30.30;5.22;;;8.00;99.90;;;;;;4991218;28;20533;-83
2021/04/13 08:41:09;;;;;;;20.20;3.42;;;7.50;99.90;;;;;;4974801;28;20050;-83
2021/04/13 08:43:51;;;;;;;14.98;3.00;;;7.20;99.90;;;;;;4991870;28;20491;-82
2021/04/13 08:46:30;;;;;;;34.30;3.83;;;7.10;99.90;;;;;;4992231;28;20026;-80
2021/04/13 08:49:10;;;;;;;17.40;4.60;;;7.10;99.90;;;;;;4992200;28;20483;-79
2021/04/13 08:51:45;;;;;;;28.20;4.53;;;7.40;99.90;;;;;;4987200;28;20396;-80
2021/04/13 08:54:32;;;;;;;30.35;3.33;;;7.80;99.90;;;;;;4971727;28;20038;-81
2021/04/13 08:57:02;;;;;;;24.40;4.00;;;7.70;99.90;;;;;;4972565;28;20037;-81
2021/04/13 08:59:35;;;;;;;17.98;2.92;;;7.40;99.90;;;;;;4987505;28;20113;-81
2021/04/13 09:02:19;;;;;;;27.10;6.18;;;7.60;99.90;;;;;;4987557;28;20037;-80
2021/04/13 09:04:44;;;;;;;27.25;3.33;;;7.80;99.90;;;;;;4971916;28;20034;-80
2021/04/13 09:07:26;;;;;;;19.40;3.65;;;8.00;99.90;;;;;;4971156;28;20023;-81
2021/04/13 09:10:13;;;;;;;18.67;2.53;;;8.20;99.90;;;;;;4976555;28;20026;-80
2021/04/13 09:12:41;;;;;;;18.15;2.40;;;8.10;99.90;;;;;;4995454;28;20030;-81
2021/04/13 09:15:21;;;;;;;19.25;2.70;;;7.80;99.90;;;;;;4994412;28;20050;-80
2021/04/13 09:18:09;;;;;;;35.38;4.30;;;7.60;99.90;;;;;;4994286;28;20030;-78
2021/04/13 09:20:39;;;;;;;18.83;2.70;;;7.40;99.90;;;;;;4988645;28;20468;-79
2021/04/13 09:23:32;;;;;;;22.52;3.45;;;7.40;99.90;;;;;;4995483;28;20060;-79
2021/04/13 09:26:10;;;;;;;25.30;3.50;;;7.40;99.90;;;;;;4981162;28;20030;-79
2021/04/13 09:28:57;;;;;;;27.02;2.97;;;7.30;99.90;;;;;;4974737;28;20277;-80
2021/04/13 09:31:46;;;;;;;9.13;1.63;;;7.10;99.90;;;;;;4991294;28;20097;-79
2021/04/13 09:34:34;;;;;;;8.30;1.85;;;7.40;99.90;;;;;;4989299;28;20042;-79
2021/04/13 09:37:08;;;;;;;12.45;2.25;;;7.70;99.90;;;;;;4974030;28;20077;-79
2021/04/13 09:39:48;;;;;;;19.83;2.38;;;7.90;99.90;;;;;;4994685;28;20058;-79
2021/04/13 09:42:43;;;;;;;20.98;2.42;;;8.10;99.90;;;;;;4994986;28;20467;-79
2021/04/13 09:45:35;;;;;;;16.42;2.25;;;8.20;99.90;;;;;;4994406;28;20038;-79
2021/04/13 09:48:16;;;;;;;29.13;3.30;;;8.60;99.90;;;;;;4993520;28;20030;-79
2021/04/13 09:50:44;;;;;;;18.85;3.05;;;8.50;99.90;;;;;;4987668;28;20495;-79
2021/04/13 09:53:32;;;;;;;11.73;1.92;;;8.50;99.90;;;;;;4977656;28;20038;-79
2021/04/13 09:56:42;;;;;;;19.48;2.45;;;8.40;99.90;;;;;;5008735;28;20037;-79
2021/04/13 10:00:02;;;;;;;15.10;2.80;;;8.60;99.90;;;;;;4994877;28;20379;-79
2021/04/13 10:03:04;;;;;;;15.93;2.45;;;8.50;99.90;;;;;;4953014;29;20027;-79
2021/04/13 10:05:35;;;;;;;18.63;3.50;;;8.60;99.90;;;;;;4953066;28;20078;-79
2021/04/13 10:08:11;;;;;;;21.80;3.38;;;8.10;99.90;;;;;;4984284;28;20510;-79
2021/04/13 10:10:39;;;;;;;18.45;2.95;;;8.00;99.90;;;;;;4989615;28;20614;-79
2021/04/13 10:13:23;;;;;;;33.95;3.70;;;8.00;99.90;;;;;;4987714;28;20018;-79
2021/04/13 10:16:08;;;;;;;31.95;3.67;;;8.00;99.90;;;;;;4990375;28;20034;-78
2021/04/13 10:18:48;;;;;;;33.88;4.55;;;7.90;99.90;;;;;;4981704;28;20033;-79
2021/04/13 10:21:46;;;;;;;22.73;3.42;;;8.20;99.90;;;;;;4989449;28;20046;-77
2021/04/13 10:24:45;;;;;;;26.35;3.72;;;8.30;99.90;;;;;;4987884;28;20380;-80
2021/04/13 10:27:41;;;;;;;17.65;3.40;;;8.30;99.90;;;;;;4988749;28;20057;-77
2021/04/13 10:30:33;;;;;;;21.40;2.88;;;8.20;99.90;;;;;;4987740;28;20138;-80
2021/04/13 10:33:37;;;;;;;16.50;2.95;;;8.60;99.90;;;;;;4993746;28;20103;-78
2021/04/13 10:36:21;;;;;;;18.17;2.53;;;8.60;99.90;;;;;;4967326;28;20518;-79
2021/04/13 10:39:23;;;;;;;23.38;3.40;;;8.20;99.90;;;;;;4988368;28;20050;-78
2021/04/13 10:42:26;;;;;;;8.27;1.90;;;8.30;99.90;;;;;;4988801;28;20031;-77
2021/04/13 10:45:17;;;;;;;19.60;2.65;;;8.60;99.90;;;;;;4983136;28;20068;-77
2021/04/13 10:48:01;;;;;;;15.27;2.65;;;8.50;99.90;;;;;;4989784;28;20031;-76
2021/04/13 10:50:51;;;;;;;18.42;2.50;;;8.80;99.90;;;;;;4989650;28;20026;-78
2021/04/13 10:53:44;;;;;;;16.92;2.85;;;9.10;99.90;;;;;;4981593;28;20399;-77
2021/04/13 10:57:04;;;;;;;21.60;2.80;;;9.20;99.90;;;;;;4986648;28;20026;-75
2021/04/13 11:00:07;;;;;;;22.63;3.60;;;9.00;99.90;;;;;;4943367;28;20061;-76
2021/04/13 11:02:44;;;;;;;18.80;3.47;;;9.00;99.90;;;;;;4989434;28;20036;-76
2021/04/13 11:05:37;;;;;;;22.08;3.85;;;8.80;99.90;;;;;;4984671;28;20065;-76
2021/04/13 11:08:49;;;;;;;30.67;4.82;;;8.80;99.90;;;;;;4982107;28;20022;-77
2021/04/13 11:11:52;;;;;;;23.58;3.75;;;8.90;99.90;;;;;;4988440;28;20022;-75
2021/04/13 11:14:23;;;;;;;14.38;3.47;;;8.80;99.90;;;;;;4987164;28;21672;-76
2021/04/13 11:17:11;;;;;;;17.10;2.67;;;8.90;99.90;;;;;;4987042;28;20477;-76
2021/04/13 11:20:13;;;;;;;25.02;3.17;;;9.10;99.90;;;;;;4988539;28;20033;-75
2021/04/13 11:22:56;;;;;;;17.67;3.03;;;9.40;99.90;;;;;;4989486;28;20045;-76
2021/04/13 11:25:39;;;;;;;19.85;2.75;;;9.30;99.90;;;;;;4975661;28;20026;-76
2021/04/13 11:28:36;;;;;;;17.00;2.80;;;9.00;99.90;;;;;;4988635;28;20104;-77
2021/04/13 11:31:15;;;;;;;18.73;3.53;;;9.10;99.90;;;;;;4963018;28;20521;-79
2021/04/13 11:34:01;;;;;;;14.63;3.67;;;9.10;99.90;;;;;;4987791;28;20073;-77
2021/04/13 11:37:07;;;;;;;26.08;3.85;;;9.30;99.90;;;;;;4983515;28;20030;-78
2021/04/13 11:39:53;;;;;;;19.10;4.18;;;9.50;99.90;;;;;;4985475;28;20065;-77
2021/04/13 11:42:33;;;;;;;27.63;3.15;;;9.70;99.90;;;;;;4988675;28;20030;-77
2021/04/13 11:45:48;;;;;;;23.65;3.75;;;9.50;99.90;;;;;;4980220;28;20026;-79
2021/04/13 11:48:25;;;;;;;23.02;4.75;;;10.10;99.90;;;;;;4961771;28;20064;-79
2021/04/13 11:51:02;;;;;;;24.95;3.45;;;10.20;99.90;;;;;;4987378;28;20410;-79
2021/04/13 11:53:42;;;;;;;14.55;2.50;;;10.80;99.90;;;;;;4987874;28;20026;-79
2021/04/13 11:56:23;;;;;;;26.00;3.28;;;10.40;99.90;;;;;;4996956;28;20030;-79
2021/04/13 11:59:19;;;;;;;17.80;3.30;;;9.60;99.90;;;;;;4982716;28;20120;-78
2021/04/13 12:01:47;;;;;;;19.17;2.83;;;8.80;99.90;;;;;;4985865;28;20027;-79
2021/04/13 12:04:20;;;;;;;21.88;3.83;;;8.50;99.90;;;;;;4986609;28;20022;-78
2021/04/13 12:06:50;;;;;;;12.52;2.22;;;8.10;99.90;;;;;;4986695;28;20052;-80
2021/04/13 12:09:46;;;;;;;22.60;2.90;;;7.90;99.90;;;;;;4985748;28;20495;-79
2021/04/13 12:12:30;;;;;;;24.73;2.95;;;8.30;99.90;;;;;;4988672;28;20038;-79
2021/04/13 12:15:19;;;;;;;17.58;2.90;;;8.60;99.90;;;;;;4987799;28;20034;-78
2021/04/13 12:17:45;;;;;;;30.77;4.28;;;8.70;99.90;;;;;;4987691;28;20058;-79
2021/04/13 12:20:27;;;;;;;24.92;3.40;;;8.40;99.90;;;;;;4987840;28;20061;-79
2021/04/13 12:23:05;;;;;;;26.65;5.20;;;8.50;99.90;;;;;;4987407;28;20018;-79
2021/04/13 12:25:37;;;;;;;14.73;3.35;;;8.80;99.90;;;;;;4987267;28;20101;-79
2021/04/13 12:28:15;;;;;;;18.90;3.08;;;8.60;99.90;;;;;;4988071;28;20027;-79
2021/04/13 12:30:43;;;;;;;27.20;3.90;;;8.30;99.90;;;;;;4983609;28;20030;-79
2021/04/13 12:33:24;;;;;;;20.55;2.92;;;7.90;99.90;;;;;;4986732;28;20025;-79
2021/04/13 12:35:50;;;;;;;23.70;3.25;;;7.10;99.90;;;;;;4986202;28;20723;-78
2021/04/13 12:38:51;;;;;;;34.25;5.07;;;6.20;99.90;;;;;;4987556;28;20030;-80
2021/04/13 12:41:17;;;;;;;26.95;4.40;;;5.60;99.90;;;;;;4986328;28;20491;-79
2021/04/13 12:43:46;;;;;;;23.63;3.10;;;5.60;99.90;;;;;;4986149;28;20037;-79
2021/04/13 12:46:32;;;;;;;26.35;3.33;;;5.60;99.90;;;;;;4991136;28;20033;-79
2021/04/13 12:49:31;;;;;;;23.20;2.90;;;6.00;99.90;;;;;;4991542;28;20027;-79
2021/04/13 12:52:04;;;;;;;15.75;2.35;;;6.50;99.90;;;;;;4959778;28;20039;-79
2021/04/13 12:54:37;;;;;;;17.38;3.17;;;7.60;99.90;;;;;;4990040;28;20023;-79
2021/04/13 12:57:10;;;;;;;18.40;3.42;;;8.50;99.90;;;;;;4984207;28;20035;-78
2021/04/13 12:59:36;;;;;;;;;;;9.00;99.90;;;;;;4992983;28;20486;-78
2021/04/13 13:02:05;;;;;;;35.90;3.67;;;8.70;99.90;;;;;;4992396;28;20000;-78
2021/04/13 13:04:39;;;;;;;21.48;4.13;;;8.10;99.90;;;;;;4990952;28;20026;-79
2021/04/13 13:07:14;;;;;;;17.17;3.53;;;8.30;99.90;;;;;;4989383;28;20030;-79
2021/04/13 13:09:40;;;;;;;20.33;2.55;;;9.00;99.90;;;;;;4989902;28;20035;-79
2021/04/13 13:12:14;;;;;;;29.85;4.50;;;9.70;99.90;;;;;;4992245;28;20053;-79
2021/04/13 13:14:43;;;;;;;23.75;4.88;;;9.60;99.90;;;;;;4991979;28;20053;-79
2021/04/13 13:17:09;;;;;;;26.00;3.75;;;10.20;99.90;;;;;;4992710;28;20049;-80
2021/04/13 13:19:45;;;;;;;23.75;3.38;;;10.40;99.90;;;;;;4991852;28;20398;-79
2021/04/13 13:22:19;;;;;;;22.63;4.07;;;10.20;99.90;;;;;;4991528;28;20105;-78
2021/04/13 13:24:49;;;;;;;18.25;3.90;;;10.10;99.90;;;;;;4990233;28;20031;-79
2021/04/13 13:27:26;;;;;;;25.45;4.57;;;10.20;99.90;;;;;;4974719;28;20078;-79
2021/04/13 13:29:52;;;;;;;20.08;2.67;;;9.60;99.90;;;;;;4976060;28;20052;-79
2021/04/13 13:32:21;;;;;;;23.30;3.45;;;9.00;99.90;;;;;;4992657;28;20430;-80
2021/04/13 13:34:49;;;;;;;28.48;3.92;;;8.40;99.90;;;;;;4994319;28;20041;-78
2021/04/13 13:37:16;;;;;;;34.28;4.40;;;8.10;99.90;;;;;;4995258;28;20065;-79
2021/04/13 13:39:41;;;;;;;29.73;3.97;;;7.70;99.90;;;;;;4994942;28;20050;-79